WEATHER DATA

YESTERDAY
Time Temp. Dewp. Hum. Bar. 1h Prec. 24h Prec.
00:05 17.6 13.5 77 1012.4 0.0000 0.0000
00:15 17.5 13.4 77 1012.5 0.0000 0.0000
00:25 17.4 13.3 77 1012.6 0.0000 0.0000
00:35 17.4 13.3 77 1012.6 0.0000 0.0000
00:45 17.3 13.4 78 1012.5 0.0000 0.0000
00:55 17.2 13.3 78 1012.3 0.0000 0.0000
01:05 17.1 13.2 78 1012.3 0.0000 0.0000
01:16 17.1 13.2 78 1012.3 0.0000 0.0000
01:25 17 13.3 79 1012.2 0.0000 0.0000
01:35 16.9 13.2 79 1012.1 0.0000 0.0000
01:45 16.8 13.1 79 1012 0.0000 0.0000
01:56 16.7 13 79 1012 0.0000 0.0000
02:06 16.6 12.9 79 1012 0.0000 0.0000
02:15 16.6 12.9 79 1012 0.0000 0.0000
02:26 16.4 12.8 79 1012 0.0000 0.0000
02:36 16.4 12.9 80 1011.8 0.0000 0.0000
02:46 16.3 12.8 80 1011.9 0.0000 0.0000
02:55 16.2 12.7 80 1011.8 0.0000 0.0000
03:06 16.2 12.7 80 1012 0.0000 0.0000
03:16 16.2 12.7 80 1012 0.0000 0.0000
03:26 16.1 12.7 80 1012.1 0.0000 0.0000
03:36 16 12.6 80 1012 0.0000 0.0000
03:46 15.8 12.4 80 1011.7 0.0000 0.0000
03:56 15.7 12.3 80 1011.7 0.0000 0.0000
04:06 15.6 12.4 81 1011.8 0.0000 0.0000
04:17 15.5 12.3 81 1011.6 0.0000 0.0000
04:26 15.5 12.3 81 1011.6 0.0000 0.0000
04:36 15.4 12.2 81 1011.4 0.0000 0.0000
04:47 15.3 12.1 81 1011.6 0.0000 0.0000
04:57 15.2 12 81 1011.6 0.0000 0.0000
05:06 15.1 11.9 81 1011.7 0.0000 0.0000
05:16 15 11.8 81 1011.6 0.0000 0.0000
05:27 14.9 11.7 81 1011.6 0.0000 0.0000
05:37 14.8 11.8 82 1011.7 0.0000 0.0000
05:46 14.8 11.8 82 1011.6 0.0000 0.0000
05:57 14.8 11.8 82 1011.5 0.0000 0.0000
06:07 14.7 11.7 82 1011.5 0.0000 0.0000
06:17 14.6 11.6 82 1011.6 0.0000 0.0000
06:27 14.6 11.7 83 1011.7 0.0000 0.0000
06:37 14.6 11.7 83 1011.8 0.0000 0.0000
06:47 14.6 11.7 83 1011.7 0.0000 0.0000
06:57 14.6 11.9 84 1011.7 0.0000 0.0000
07:08 14.6 11.9 84 1011.8 0.0000 0.0000
07:17 14.6 11.9 84 1011.9 0.0000 0.0000
07:27 14.7 12 84 1011.9 0.0000 0.0000
07:37 14.8 12.3 85 1012 0.0000 0.0000
07:48 14.9 12.4 85 1012.2 0.0000 0.0000
07:58 15.1 12.6 85 1012.2 0.0000 0.0000
08:07 15.2 12.7 85 1012.3 0.0000 0.0000
08:18 15.4 12.9 85 1012.6 0.0000 0.0000
08:28 15.6 13.1 85 1012.7 0.0000 0.0000
08:38 15.7 13 84 1012.8 0.0000 0.0000
08:48 15.9 13.2 84 1012.8 0.0000 0.0000
08:58 16.1 13.4 84 1013 0.0000 0.0000
09:08 16.4 13.7 84 1013 0.0000 0.0000
09:18 16.6 13.5 82 1012.9 0.0000 0.0000
09:28 16.9 13.8 82 1012.8 0.0000 0.0000
09:38 17.1 13.6 80 1012.9 0.0000 0.0000
09:48 17.3 13.8 80 1012.9 0.0000 0.0000
09:58 17.5 13.8 79 1012.9 0.0000 0.0000
10:09 17.6 13.9 79 1012.9 0.0000 0.0000
10:18 17.7 13.8 78 1012.9 0.0000 0.0000
10:28 18 13.9 77 1013 0.0000 0.0000
10:39 18.2 14.1 77 1013.1 0.0000 0.0000
10:49 18.5 14.4 77 1013.3 0.0000 0.0000
10:58 18.7 14.4 76 1013.4 0.0000 0.0000
11:08 18.9 14.6 76 1013.4 0.0000 0.0000
11:19 19 14.5 75 1013.4 0.0000 0.0000
11:29 19.3 14.8 75 1013.4 0.0000 0.0000
11:38 19.5 14.7 74 1013.4 0.0000 0.0000
11:49 19.8 14.8 73 1013.1 0.0000 0.0000
11:59 20.1 15.1 73 1013 0.0000 0.0000
12:09 20.4 15.2 72 1013 0.0000 0.0000
12:19 20.7 15.3 71 1012.9 0.0000 0.0000
12:29 20.7 15 70 1012.9 0.0000 0.0000
12:39 20.5 15.1 71 1012.9 0.0000 0.0000
12:49 20.4 14.8 70 1013 0.0000 0.0000
13:00 20.4 14.8 70 1012.8 0.0000 0.0000
13:09 20.4 14.8 70 1012.6 0.0000 0.0000
13:19 20.4 15 71 1012.6 0.0000 0.0000
13:29 20.4 15.2 72 1012.5 0.0000 0.0000
13:40 20.6 15.4 72 1012.6 0.0000 0.0000
13:50 21 15.8 72 1012.4 0.0000 0.0000
13:59 21.1 15.4 70 1012.5 0.0000 0.0000
14:10 21.1 15.9 72 1012.7 0.1010 0.1000
14:20 21.1 16.1 73 1012.4 0.1010 0.1000
14:30 21.3 15.6 70 1012.5 0.1010 0.1000
14:40 21.4 15.7 70 1012.4 0.1010 0.1000
14:50 21.6 15.7 69 1012.4 0.1010 0.1000
15:00 21.7 15.5 68 1012.3 0.1010 0.1000
15:10 22.1 16.2 69 1012.2 0.0000 0.1000
15:21 22.4 16 67 1012.2 0.0000 0.1000
15:30 22.6 15 62 1012.5 0.0000 0.1000
15:40 22.4 13.7 58 1012.6 0.0000 0.1000
15:50 22.4 14 59 1012.6 0.0000 0.1000
16:01 22.6 14.4 60 1012.5 0.0000 0.1000
16:10 22.9 13.9 57 1012.4 0.0000 0.1000
16:20 22.9 13.4 55 1012.6 0.0000 0.1000
16:31 22.9 13.1 54 1012.5 0.0000 0.1000
16:41 22.9 13.4 55 1012.4 0.0000 0.1000
16:51 23.2 13.9 56 1012.5 0.0000 0.1000
17:00 23.5 13.7 54 1012.5 0.0000 0.1000
17:11 23.8 13.7 53 1012.5 0.0000 0.1000
17:21 24 13.8 53 1012.5 0.0000 0.1000
17:31 24.2 13.7 52 1012.6 0.0000 0.1000
17:41 24.2 13.1 50 1012.5 0.0000 0.1000
17:51 24.1 12.7 49 1012.6 0.0000 0.1000
18:01 23.9 13.5 52 1012.7 0.0000 0.1000
18:11 23.9 13.7 53 1012.6 0.0000 0.1000
18:22 24.1 13.6 52 1012.6 0.0000 0.1000
18:31 24.1 13.6 52 1012.7 0.0000 0.1000
18:41 23.9 13.7 53 1012.9 0.0000 0.1000
18:52 23.4 14.7 58 1012.9 0.0000 0.1000
19:02 22.8 14.6 60 1013.1 0.0000 0.1000
19:11 22.4 14.5 61 1013.3 0.0000 0.1000
19:21 22 14.6 63 1013.3 0.0000 0.1000
19:32 21.6 14.5 64 1013.5 0.0000 0.1000
19:42 21.1 14 64 1013.5 0.0000 0.1000
19:52 20.9 14.1 65 1013.7 0.0000 0.1000
20:02 20.6 13.6 64 1014 0.0000 0.1000
20:12 20.1 13.1 64 1014 0.0000 0.1000
20:22 19.7 12.9 65 1014.1 0.0000 0.1000
20:32 19.3 12.8 66 1014.2 0.0000 0.1000
20:42 19 12.7 67 1014.4 0.0000 0.1000
20:52 18.7 12.5 67 1014.7 0.0000 0.1000
21:02 18.5 12.5 68 1014.8 0.0000 0.1000
21:13 18.2 12.6 70 1015 0.1010 0.2000
21:17 18.2 12.9 71 1015.1 0.3030 0.4000
21:26 17.9 13 73 1015.2 0.5050 0.6000
21:36 17.6 12.9 74 1015.4 0.5050 0.6000
21:47 17.4 12.9 75 1015.5 0.5050 0.6000
21:57 17.1 12.8 76 1015.5 0.5050 0.6000
22:07 16.9 12.6 76 1015.5 0.4040 0.6000
22:17 16.7 12.7 77 1015.6 0.1010 0.6000
22:27 16.5 12.5 77 1015.5 0.0000 0.6000
22:37 16.3 12.3 77 1015.6 0.0000 0.6000
22:47 16.1 12.1 77 1015.6 0.0000 0.6000
22:57 16 12 77 1015.6 0.0000 0.6000
23:07 15.9 12.1 78 1015.6 0.0000 0.6000
23:17 15.8 12 78 1015.7 0.0000 0.6000
23:28 15.7 12.1 79 1015.7 0.0000 0.6000
23:38 15.7 12.1 79 1015.8 0.0000 0.6000
23:47 15.7 12.1 79 1015.9 0.0000 0.6000
23:57 15.7 12.3 80 1016 0.0000

DAY STATISTIC

2021-08-01
TEMPERATURE
AVERAGE
18.5
HIGH
24.2
17:31
LOW
14.6
06:17
PRESSURE
AVERAGE
1012.9
HIGH
1016.0
23:57
LOW
1011.4
04:36
DEWPOINT
AVERAGE
13.4
HIGH
16.2
15:10
LOW
11.6
06:17
HUMIDITY
AVERAGE
73
HIGH
85
07:37
LOW
49
17:51
PRECIPITATION
RAIN HOUR
0.5
RAIN DAY
0.6
TEMPERATURE (°C)
LOW
14.6
HIGH
24.2
AVERAGE
18.5
PRESSURE (hpa)
LOW
1011.4
HIGH
1016.0
AVERAGE
1012.9
DEVICE